Airfield :
LOGIN :

Register | Disclaimer

   EN    FR    IT 

 










Legend :    VFR   Marginal VFR   IFR   Intensive IFR   Very Intensive IFR
Visi :
Ceiling :
>= 8 km
>= 3000ft
5 to 8 km
1000 to 3000 ft
1500m to 5 km
500 to 1000 ft
800 to 1500m
200 to 500 ft
< 800m
< 200 ft
Symbols :   Thunderstorms  Fog  Heavy snow  Heavy precipitations  Wind > 20 kt
SIGMETs :     Misc.  Thunderstorms  Icing  Turbulence  Mountain Waves  Volcanic Ashes







- Airport Elevation : 1989 ft
- IATA code : KLV


LKKV - Karlovy Vary

CURRENT METAR :
  • 232100Z 24003KT 9999 SCT033 11/09 Q1016

EXPIRED METARs :
  • 232000Z 29003KT CAVOK 11/09 Q1016
  • 231929Z 00000KT CAVOK 12/10 Q1015 RMK REG QNH 1010
  • 231900Z 23004KT 9999 -SHRA FEW025 13/10 Q1015
  • 231830Z 30006KT 9999 -SHRA FEW025CB 14/10 Q1016
  • 231824Z 30006KT 9999 -SHRA FEW025CB 14/10 Q1016 RMK REG QNH 1010
  • 231811Z 30011KT 9999 VCTS FEW023CB 14/10 Q1015 RMK REG QNH 1010

TAF TAF LKKV
Valid from the 23 at 18:00 until the 25 at 00:00 UTC


231700Z 2318/2500 25010KT 9999 SCT030
TEMPO 2318/2410 8000 SHRA BKN027
PROB30
TEMPO 2318/2400 30020G36KT 3000 TSRA SCT020CB
No reported NOTAMs for that airfield.
2 SIGMETs reported for the Praha FIR (LKAA) :
 
Squall lined thunderstorms
LKAA SIGMET 9 VALID 231659/232053 LKPW
LKAA PRAHA FIR SQL TS OBS NW OF LINE N4943 E01227 - N5044 E01542 TOP FL350 MOV E WKN=
SIGMET 9  cancelation
LKAA SIGMET 10 VALID 231840/232053 LKPW
LKAA PRAHA FIR CNL SIGMET 9 231659/232053=



MET'MAP, your aeronautical weather chart ! - Copyright ORBIFLY December 2007 - Disclaimer

ORBIFLY MET'MAP TEAM :

Programming & Development : Alexandra Zaïnal
Concept & Development : Baudouin d'Aumeries
Co-Development & Prog : Marc-Olivier Méhu
Technical & hardware support : Manuel Goepfert

Contact : metmap@orbifly.com




SOURCES & CREDITS :

   NOAA